Radar strel več informacij blitzortung!


Radar padavin  rain snow radar


Obiščite še:

Template documentation
and downloads

And another site



METAR v bližini

   
LJLJ - Ljubljana
Posodobljeno: 19-01-2018 18:30
oblačno  
oblačno  
   Veter: JV 5.6 km/h
Veter: JV 5.6 km/h
Temperatura: 2°C
Občutek mraza: 1°C
Točka rosišča: 2°C
Vlažnost: 100%
Zračni tlak: 1011 hPa
Oblaki: oblačno
Vidljivost: More than 10 km
Podrobnosti o oblakih: delno oblačno 152.4 m,
oblačno 396.2 m
LJLJ 191730Z 14003KT 9999 SCT005 OVC013 02/02 Q1011 NOSIG
LJCE - Cerklje ob Krki
Posodobljeno: 19-01-2018 18:30
rahel pršec, oblačno  
rahel pršec, oblačno  
   Veter: ZSZ 7.4 km/h
Veter: ZSZ 7.4 km/h
Temperatura: 3°C
Občutek mraza: 1°C
Točka rosišča: 2°C
Vlažnost: 93%
Zračni tlak: 1013 hPa
Oblaki: oblačno
Vidljivost: More than 10 km
Podrobnosti o oblakih: oblačno 1463 m
LJCE 191730Z AUTO 29004KT 9999 -DZ OVC048/// 03/02 Q1013
LJMB - Maribor
Posodobljeno: 19-01-2018 18:30
jasno  
jasno  
   Veter: Jug 7.4 km/h
Veter: Jug 7.4 km/h
Temperatura: 4°C
Občutek mraza: 2°C
Točka rosišča: 1°C
Vlažnost: 81%
Zračni tlak: 1011 hPa
Vidljivost: More than 10 km
Podrobnosti o oblakih: jasno
LJMB 191730Z 18004KT CAVOK 04/01 Q1011
LJPZ - Portorož
Posodobljeno: 19-01-2018 18:30
pretežno oblačno  
pretežno oblačno  
   Veter: JV 7.4 km/h
Veter: JV 7.4 km/h
Temperatura: 9°C
Občutek mraza: 8°C
Točka rosišča: 5°C
Vlažnost: 76%
Zračni tlak: 1009 hPa
Oblaki: pretežno oblačno
Vidljivost: More than 10 km
Podrobnosti o oblakih: nekaj oblakov 1524 m,
pretežno oblačno 3048 m
LJPZ 191730Z 13004KT 100V170 9999 FEW050 BKN100 09/05 Q1009
LDRI - Rijeka, Airport, Croatia
Posodobljeno: 19-01-2018 18:30
rahel dež, Nearby Thunderstorm, pretežno oblačno  
rahel dež, Nearby Thunderstorm, pretežno oblačno  
   Veter: VSV 24.1 km/h
Veter: VSV 24.1 km/h
Temperatura: 8°C
Občutek mraza: 4°C
Točka rosišča: 3°C
Vlažnost: 71%
Zračni tlak: 1009 hPa
Oblaki: pretežno oblačno
Vidljivost: More than 10 km
Podrobnosti o oblakih: nekaj oblakov 518.2 m,
delno oblačno 609.6 m,
pretežno oblačno 1005.8 m
LDRI 191730Z 06013KT 9999 -RA VCTS FEW017CB SCT020 BKN033 08/03 Q1009
LOWK - Klagenfurt, Airport, Avstia
Posodobljeno: 19-01-2018 18:20
pretežno oblačno  
pretežno oblačno  
   Veter: različen 1.9 km/h
Veter: različen 1.9 km/h
Temperatura: 0°C
Točka rosišča: 0°C
Vlažnost: 100%
Zračni tlak: 1011 hPa
Oblaki: pretežno oblačno
Vidljivost: 7 km
Podrobnosti o oblakih: nekaj oblakov 365.8 m,
pretežno oblačno 3962.4 m
LOWK 191720Z VRB01KT 7000 FEW012 BKN130 00/M00 Q1011 R10L/29//95 TEMPO 4000 BR BKN010

Script developed by  Saratoga-weather.org Adapted for the template by  Weerstation Leuven

Oprema, ki se uporablja:

Vremenska postaja
AERCUS WH 3083

Vremenski program
Cumulus

AERCUS WH 3083

Cumulus